Terminal Aerodrome Forecast
Issued by NWS

Home | Current Version | Previous Version | Text Only | Print | Product List | Glossary On
Versions: 1 2 3 4 5 6 7 8 9 10 11 12 13 14 15 16 17
858
FTUS41 KPBZ 091734 AAB
TAFDUJ
TAF AMD
KDUJ 091734Z 0918/1018 27012G22KT P6SM -SHSN OVC015
      TEMPO 0918/0922 3SM -SHSN
     FM100300 25008KT P6SM OVC020=

USA.gov is the U.S. government's official web portal to all federal, state and local government web resources and services.